Map

Track Data

SID SEASON NUMBER BASIN SUBBASIN NAME ISO_TIME NATURE LAT LON WMO_WIND WMO_PRES WMO_AGENCY TRACK_TYPE DIST2LAND LANDFALL IFLAG USA_AGENCY USA_ATCF_ID USA_LAT USA_LON USA_RECORD USA_STATUS USA_WIND USA_PRES USA_SSHS USA_R34_NE USA_R34_SE USA_R34_SW USA_R34_NW USA_R50_NE USA_R50_SE USA_R50_SW USA_R50_NW USA_R64_NE USA_R64_SE USA_R64_SW USA_R64_NW USA_POCI USA_ROCI USA_RMW USA_EYE TOKYO_LAT TOKYO_LON TOKYO_GRADE TOKYO_WIND TOKYO_PRES TOKYO_R50_DIR TOKYO_R50_LONG TOKYO_R50_SHORT TOKYO_R30_DIR TOKYO_R30_LONG TOKYO_R30_SHORT TOKYO_LAND CMA_LAT CMA_LON CMA_CAT CMA_WIND CMA_PRES HKO_LAT HKO_LON HKO_CAT HKO_WIND HKO_PRES NEWDELHI_LAT NEWDELHI_LON NEWDELHI_GRADE NEWDELHI_WIND NEWDELHI_PRES NEWDELHI_CI NEWDELHI_DP NEWDELHI_POCI REUNION_LAT REUNION_LON REUNION_TYPE REUNION_WIND REUNION_PRES REUNION_TNUM REUNION_CI REUNION_RMW REUNION_R34_NE REUNION_R34_SE REUNION_R34_SW REUNION_R34_NW REUNION_R50_NE REUNION_R50_SE REUNION_R50_SW REUNION_R50_NW REUNION_R64_NE REUNION_R64_SE REUNION_R64_SW REUNION_R64_NW BOM_LAT BOM_LON BOM_TYPE BOM_WIND BOM_PRES BOM_TNUM BOM_CI BOM_RMW BOM_R34_NE BOM_R34_SE BOM_R34_SW BOM_R34_NW BOM_R50_NE BOM_R50_SE BOM_R50_SW BOM_R50_NW BOM_R64_NE BOM_R64_SE BOM_R64_SW BOM_R64_NW BOM_ROCI BOM_POCI BOM_EYE BOM_POS_METHOD BOM_PRES_METHOD NADI_LAT NADI_LON NADI_CAT NADI_WIND NADI_PRES WELLINGTON_LAT WELLINGTON_LON WELLINGTON_WIND WELLINGTON_PRES DS824_LAT DS824_LON DS824_STAGE DS824_WIND DS824_PRES TD9636_LAT TD9636_LON TD9636_STAGE TD9636_WIND TD9636_PRES TD9635_LAT TD9635_LON TD9635_WIND TD9635_PRES TD9635_ROCI NEUMANN_LAT NEUMANN_LON NEUMANN_CLASS NEUMANN_WIND NEUMANN_PRES MLC_LAT MLC_LON MLC_CLASS MLC_WIND MLC_PRES USA_GUST BOM_GUST BOM_GUST_PER REUNION_GUST REUNION_GUST_PER USA_SEAHGT USA_SEARAD_NE USA_SEARAD_SE USA_SEARAD_SW USA_SEARAD_NW STORM_SPEED STORM_DIR
1892191N20089 1892 24 NI BB NOT_NAMED 1892-07-09 00:00:00 TS 19.8000 88.5000 main 186 171 _________O____ -1 19.8000 88.5000 TC 30 2 336
1892191N20089 1892 24 NI BB NOT_NAMED 1892-07-09 03:00:00 TS 19.9083 88.4400 main 171 156 _________PO___ -1 19.9625 88.4100 TC 30 19.8000 88.5000 1 3 325
1892191N20089 1892 24 NI BB NOT_NAMED 1892-07-09 06:00:00 TS 20.0300 88.3338 main 156 141 _________OP___ -1 20.1000 88.3000 TC 30 19.9251 88.3845 1 3 315
1892191N20089 1892 24 NI BB NOT_NAMED 1892-07-09 09:00:00 TS 20.1357 88.2036 main 141 127 _________PP___ -1 20.2000 88.1575 TC 30 20.0501 88.2651 1 3 310
1892191N20089 1892 24 NI BB NOT_NAMED 1892-07-09 12:00:00 TS 20.2375 88.0691 main 127 99 _________OP___ -1 20.3000 88.0000 TC 30 20.1750 88.1382 1 4 313
1892191N20089 1892 24 NI BB NOT_NAMED 1892-07-09 15:00:00 TS 20.3750 87.9287 main 99 86 _________PO___ -1 20.4500 87.8575 TC 33 20.3000 88.0000 1 4 315
1892191N20089 1892 24 NI BB NOT_NAMED 1892-07-09 18:00:00 TS 20.5125 87.7737 main 86 63 _________OP___ -1 20.6000 87.7000 TC 37 20.4249 87.8474 1 4 309
1892191N20089 1892 24 NI BB NOT_NAMED 1892-07-09 21:00:00 TS 20.6250 87.5937 main 63 41 _________PP___ -1 20.7000 87.5074 TC 41 20.5499 87.6799 1 4 303
1892191N20089 1892 24 NI BB NOT_NAMED 1892-07-10 00:00:00 TS 20.7375 87.3987 main 41 20 _________OP___ -1 20.8000 87.3000 TC 45 20.6749 87.4974 1 4 304
1892191N20089 1892 24 NI BB NOT_NAMED 1892-07-10 03:00:00 TS 20.8750 87.2038 main 23 15 _________PO___ -1 20.9499 87.1075 TC 45 20.8000 87.3000 3 5 306
1892191N20089 1892 24 NI BB NOT_NAMED 1892-07-10 06:00:00 TS 21.0146 86.9906 main 15 0 _________OP___ -1 21.1000 86.9000 TC 45 20.9291 87.0813 3 5 301
1892191N20089 1892 24 NI BB NOT_NAMED 1892-07-10 09:00:00 TS 21.1326 86.7463 main 0 0 _________PP___ -1 21.2076 86.6425 TC 45 21.0576 86.8501 3 5 297
1892191N20089 1892 24 NI BB NOT_NAMED 1892-07-10 12:00:00 TS 21.2411 86.5094 main 0 0 _________OP___ -1 21.3000 86.4000 TC 45 21.1823 86.6188 3 5 299
1892191N20089 1892 24 NI BB NOT_NAMED 1892-07-10 15:00:00 TS 21.3500 86.3212 main 0 0 _________PO___ -1 21.3999 86.2424 TC 41 21.3000 86.4000 3 4 303
1892191N20089 1892 24 NI BB NOT_NAMED 1892-07-10 18:00:00 TS 21.4556 86.1552 main 0 0 _________OP___ -1 21.5000 86.1000 TC 37 21.4111 86.2105 3 4 302
1892191N20089 1892 24 NI BB NOT_NAMED 1892-07-10 21:00:00 TS 21.5574 85.9674 main 0 0 _________PP___ -1 21.6000 85.9000 TC 33 21.5148 86.0348 3 4 300
1892191N20089 1892 24 NI BB NOT_NAMED 1892-07-11 00:00:00 TS 21.6556 85.7834 main 0 0 _________OP___ -1 21.7000 85.7000 TC 30 21.6111 85.8668 3 4 302
1892191N20089 1892 24 NI BB NOT_NAMED 1892-07-11 03:00:00 TS 21.7537 85.6250 main 0 0 _________PO___ -1 21.8074 85.5500 TC 30 21.7000 85.7000 1 4 302
1892191N20089 1892 24 NI BB NOT_NAMED 1892-07-11 06:00:00 TS 21.8411 85.4604 main 0 0 _________OP___ -1 21.9000 85.4000 TC 30 21.7822 85.5209 1 4 295
1892191N20089 1892 24 NI BB NOT_NAMED 1892-07-11 09:00:00 TS 21.9075 85.2712 main 0 0 _________PP___ -1 21.9575 85.2000 TC 30 21.8575 85.3424 1 4 289
1892191N20089 1892 24 NI BB NOT_NAMED 1892-07-11 12:00:00 TS 21.9645 85.0839 main 0 0 _________OP___ -1 22.0000 85.0000 TC 30 21.9290 85.1677 1 3 289
1892191N20089 1892 24 NI BB NOT_NAMED 1892-07-11 15:00:00 TS 22.0212 84.9212 main 0 0 _________PO___ -1 22.0425 84.8425 TC 30 22.0000 85.0000 1 3 292
1892191N20089 1892 24 NI BB NOT_NAMED 1892-07-11 18:00:00 TS 22.0751 84.7894 main 0 0 _________OP___ -1 22.1000 84.7000 TC 30 22.0502 84.8788 1 3 297
1892191N20089 1892 24 NI BB NOT_NAMED 1892-07-11 21:00:00 TS 22.1408 84.6732 main 0 0 _________PP___ -1 22.1773 84.5873 TC 30 22.1043 84.7591 1 3 302
1892191N20089 1892 24 NI BB NOT_NAMED 1892-07-12 00:00:00 TS 22.2407 84.5049 main 0 0 _________OP___ -1 22.3000 84.4000 TC 30 22.1813 84.6098 1 5 300
1892191N20089 1892 24 NI BB NOT_NAMED 1892-07-12 03:00:00 TS 22.3888 84.2150 main 0 0 _________PO___ -1 22.4777 84.0301 TC 30 22.3000 84.4000 1 7 299
1892191N20089 1892 24 NI BB NOT_NAMED 1892-07-12 06:00:00 TS 22.5872 83.8309 main 0 0 _________OP___ -1 22.7000 83.6000 TC 30 22.4745 84.0619 1 8 301
1892191N20089 1892 24 NI BB NOT_NAMED 1892-07-12 09:00:00 TS 22.8167 83.4467 main 0 0 _________PP___ -1 22.9425 83.2275 TC 30 22.6910 83.6659 1 8 305
1892191N20089 1892 24 NI BB NOT_NAMED 1892-07-12 12:00:00 TS 23.0685 83.0809 main 0 0 _________OP___ -1 23.2000 82.9000 TC 30 22.9370 83.2619 1 8 309
1892191N20089 1892 24 NI BB NOT_NAMED 1892-07-12 15:00:00 TS 23.3212 82.7599 main 0 0 _________PO___ -1 23.4424 82.6199 TC 30 23.2000 82.9000 1 7 314
1892191N20089 1892 24 NI BB NOT_NAMED 1892-07-12 18:00:00 TS 23.5686 82.5250 main 0 0 _________OP___ -1 23.7000 82.4000 TC 30 23.4701 82.6187 1 7 323
1892191N20089 1892 24 NI BB NOT_NAMED 1892-07-12 21:00:00 TS 23.8426 82.3384 main 0 0 _________PP___ -1 23.9900 82.2351 TC 30 23.7443 82.4072 1 6 331
1892191N20089 1892 24 NI BB NOT_NAMED 1892-07-13 00:00:00 TS 24.1143 82.1947 main 0 0 _________OP___ -1 24.3000 82.1000 TC 30 24.0214 82.2421 1 5 335
1892191N20089 1892 24 NI BB NOT_NAMED 1892-07-13 03:00:00 NR 24.3000 82.1000 main 0 __________O___ -1 TC 24.3000 82.1000 1 4 335

About IBTrACS Database

This database is a web-friendly format of International Best Track Archive for Climate Stewardship (IBTrACS), a global best track data archive curated by NOAA dating back to 1842.

Updated: 2021-12-03